Time;durP1;ratioP1;P1;durP2;ratioP2;P2;SDS_P1;SDS_P2;PMS_P1;PMS_P2;Temp;Humidity;BMP_temperature;BMP_pressure;BME280_temperature;BME280_humidity;BME280_pressure;Samples;Min_cycle;Max_cycle;Signal;HPM_P1;HPM_P2
2023/10/12 00:01:57;;;;;;;10.77;10.27;;;;;;;;;;5059990;28;20021;-63
2023/10/12 00:04:23;;;;;;;10.32;9.82;;;;;;;;;;5075243;28;20035;-63
2023/10/12 00:06:48;;;;;;;10.32;9.82;;;;;;;;;;5066849;28;20016;-62
2023/10/12 00:09:20;;;;;;;10.30;9.80;;;;;;;;;;5081722;28;20495;-62
2023/10/12 00:11:57;;;;;;;10.38;9.88;;;;;;;;;;5067883;28;20032;-64
2023/10/12 00:14:22;;;;;;;10.25;9.75;;;;;;;;;;5064027;28;20059;-63
2023/10/12 00:16:50;;;;;;;9.98;9.57;;;;;;;;;;5070968;28;20013;-63
2023/10/12 00:19:18;;;;;;;10.35;9.88;;;;;;;;;;5062044;28;20127;-63
2023/10/12 00:21:43;;;;;;;10.73;10.23;;;;;;;;;;5071429;28;20449;-63
2023/10/12 00:24:12;;;;;;;10.57;10.07;;;;;;;;;;5060532;28;20103;-63
2023/10/12 00:26:41;;;;;;;9.98;9.57;;;;;;;;;;5072751;28;20032;-63
2023/10/12 00:29:07;;;;;;;9.77;9.38;;;;;;;;;;5077834;28;20055;-63
2023/10/12 00:31:32;;;;;;;9.48;9.07;;;;;;;;;;5073656;28;20504;-63
2023/10/12 00:33:58;;;;;;;10.25;9.75;;;;;;;;;;5066445;28;20021;-63
2023/10/12 00:36:24;;;;;;;11.25;10.75;;;;;;;;;;5066185;28;20039;-63
2023/10/12 00:38:52;;;;;;;10.40;9.90;;;;;;;;;;5078753;28;20030;-63
2023/10/12 00:41:17;;;;;;;10.27;9.77;;;;;;;;;;5067629;28;20032;-61
2023/10/12 00:49:17;;;;;;;10.40;9.90;;;;;;;;;;5071082;28;20032;-62
2023/10/12 00:51:51;;;;;;;9.88;9.48;;;;;;;;;;5073245;28;20035;-62
2023/10/12 00:57:03;;;;;;;10.48;9.98;;;;;;;;;;5066569;28;20064;-63
2023/10/12 00:59:31;;;;;;;10.23;9.73;;;;;;;;;;5071786;28;20116;-62
2023/10/12 01:02:00;;;;;;;10.20;9.70;;;;;;;;;;5079513;28;20021;-61
2023/10/12 01:04:26;;;;;;;10.40;9.90;;;;;;;;;;5076314;28;20021;-61
2023/10/12 01:06:51;;;;;;;10.50;10.00;;;;;;;;;;5081160;28;20373;-61
2023/10/12 01:09:20;;;;;;;10.45;9.95;;;;;;;;;;5075287;28;20595;-62
2023/10/12 01:11:54;;;;;;;9.80;9.40;;;;;;;;;;5071684;28;20032;-62
2023/10/12 01:14:26;;;;;;;9.70;9.30;;;;;;;;;;5069351;28;20032;-62
2023/10/12 01:19:21;;;;;;;10.38;9.88;;;;;;;;;;5071952;28;20104;-62
2023/10/12 01:21:47;;;;;;;10.80;10.30;;;;;;;;;;5082123;28;20161;-61
2023/10/12 01:24:13;;;;;;;9.50;9.10;;;;;;;;;;5077538;28;20032;-62
2023/10/12 01:26:48;;;;;;;10.32;9.82;;;;;;;;;;5069332;28;20017;-62
2023/10/12 01:29:20;;;;;;;11.15;10.63;;;;;;;;;;5074290;28;20077;-63
2023/10/12 01:31:48;;;;;;;10.23;9.73;;;;;;;;;;5071704;28;20031;-63
2023/10/12 01:34:17;;;;;;;10.15;9.65;;;;;;;;;;5078102;28;20024;-62
2023/10/12 01:36:43;;;;;;;9.60;9.20;;;;;;;;;;5069929;28;20404;-61
2023/10/12 01:39:12;;;;;;;10.35;9.85;;;;;;;;;;5076252;28;20016;-62
2023/10/12 01:41:41;;;;;;;10.48;9.98;;;;;;;;;;5063692;28;20021;-62
2023/10/12 01:44:10;;;;;;;9.80;9.40;;;;;;;;;;5074303;28;20020;-62
2023/10/12 01:46:39;;;;;;;10.32;9.82;;;;;;;;;;5073902;28;20437;-62
2023/10/12 01:49:06;;;;;;;9.77;9.38;;;;;;;;;;5070904;28;20027;-62
2023/10/12 01:51:31;;;;;;;10.07;9.57;;;;;;;;;;5065546;28;20021;-62
2023/10/12 01:53:57;;;;;;;10.65;10.15;;;;;;;;;;5070960;28;20718;-62
2023/10/12 01:56:28;;;;;;;9.75;9.35;;;;;;;;;;5073435;28;20115;-61
2023/10/12 01:58:54;;;;;;;9.55;9.15;;;;;;;;;;5070742;28;20531;-62
2023/10/12 02:01:20;;;;;;;9.55;9.15;;;;;;;;;;5075633;28;20111;-62
2023/10/12 02:03:47;;;;;;;10.82;10.32;;;;;;;;;;5078648;28;20103;-62
2023/10/12 02:06:22;;;;;;;10.32;9.82;;;;;;;;;;5070590;28;20032;-62
2023/10/12 02:08:52;;;;;;;10.00;9.52;;;;;;;;;;5070423;28;20077;-63
2023/10/12 02:13:47;;;;;;;9.65;9.25;;;;;;;;;;5081072;28;20080;-62
2023/10/12 02:16:13;;;;;;;10.50;10.00;;;;;;;;;;5069454;28;20107;-63
2023/10/12 02:18:38;;;;;;;10.10;9.60;;;;;;;;;;5076771;28;20016;-62
2023/10/12 02:23:39;;;;;;;9.70;9.30;;;;;;;;;;5075925;28;20067;-62
2023/10/12 02:28:53;;;;;;;10.30;9.80;;;;;;;;;;5072717;28;20039;-63
2023/10/12 02:31:19;;;;;;;9.60;9.20;;;;;;;;;;5068744;28;20077;-66
2023/10/12 02:33:44;;;;;;;9.90;9.48;;;;;;;;;;5073219;28;20489;-63
2023/10/12 02:36:09;;;;;;;10.32;9.82;;;;;;;;;;5074924;28;20104;-63
2023/10/12 02:38:35;;;;;;;10.35;9.85;;;;;;;;;;5076998;28;20123;-63
2023/10/12 02:41:00;;;;;;;9.63;9.23;;;;;;;;;;5067700;28;20388;-62
2023/10/12 02:43:31;;;;;;;9.63;9.23;;;;;;;;;;5068380;28;20028;-62
2023/10/12 02:46:05;;;;;;;9.55;9.15;;;;;;;;;;5079845;28;20060;-62
2023/10/12 02:48:36;;;;;;;9.38;8.98;;;;;;;;;;5068116;28;20028;-62
2023/10/12 02:51:06;;;;;;;10.20;9.70;;;;;;;;;;5069122;28;20115;-62
2023/10/12 02:53:34;;;;;;;9.60;9.20;;;;;;;;;;5072632;28;20042;-63
2023/10/12 02:56:00;;;;;;;10.27;9.77;;;;;;;;;;5076124;28;20029;-62
2023/10/12 02:58:27;;;;;;;9.65;9.25;;;;;;;;;;5077273;28;20039;-62
2023/10/12 03:00:55;;;;;;;9.88;9.43;;;;;;;;;;5078279;28;20024;-62
2023/10/12 03:03:36;;;;;;;10.43;9.93;;;;;;;;;;5075553;28;20115;-62
2023/10/12 03:06:07;;;;;;;10.63;10.13;;;;;;;;;;5068218;28;20035;-65
2023/10/12 03:08:46;;;;;;;10.10;9.60;;;;;;;;;;5071601;28;20032;-63
2023/10/12 03:11:12;;;;;;;10.23;9.73;;;;;;;;;;5065690;28;20020;-62
2023/10/12 03:13:42;;;;;;;10.50;10.00;;;;;;;;;;5069520;28;20051;-62
2023/10/12 03:16:13;;;;;;;10.35;9.85;;;;;;;;;;5072180;28;20021;-62
2023/10/12 03:18:39;;;;;;;10.18;9.68;;;;;;;;;;5069618;28;20103;-62
2023/10/12 03:21:11;;;;;;;9.55;9.15;;;;;;;;;;5079367;28;20103;-62
2023/10/12 03:23:38;;;;;;;10.55;10.05;;;;;;;;;;5059947;28;20679;-62
2023/10/12 03:26:05;;;;;;;9.70;9.30;;;;;;;;;;5066924;28;20036;-62
2023/10/12 03:28:36;;;;;;;9.70;9.30;;;;;;;;;;5074038;28;20028;-63
2023/10/12 03:33:53;;;;;;;10.52;10.02;;;;;;;;;;5065488;28;20094;-63
2023/10/12 03:36:25;;;;;;;10.50;10.00;;;;;;;;;;5068615;28;20401;-62
2023/10/12 03:44:22;;;;;;;10.20;9.70;;;;;;;;;;5073098;28;20117;-63
2023/10/12 03:46:57;;;;;;;10.00;9.50;;;;;;;;;;5065493;28;20104;-62
2023/10/12 03:49:45;;;;;;;9.85;9.43;;;;;;;;;;5070990;28;20021;-63
2023/10/12 03:52:14;;;;;;;10.45;9.95;;;;;;;;;;5064723;28;20071;-63
2023/10/12 03:54:55;;;;;;;9.60;9.20;;;;;;;;;;5069675;28;20074;-63
2023/10/12 03:57:26;;;;;;;9.77;9.38;;;;;;;;;;5071351;28;20073;-63
2023/10/12 04:05:16;;;;;;;10.18;9.68;;;;;;;;;;5066612;28;20020;-62
2023/10/12 04:13:49;;;;;;;10.30;9.80;;;;;;;;;;5064269;28;20044;-63
2023/10/12 04:16:27;;;;;;;10.45;9.95;;;;;;;;;;5058629;28;20035;-65
2023/10/12 04:21:23;;;;;;;11.85;11.25;;;;;;;;;;5069676;28;20020;-64
2023/10/12 04:29:08;;;;;;;10.27;9.77;;;;;;;;;;5072457;28;20103;-65
2023/10/12 04:34:08;;;;;;;11.00;10.48;;;;;;;;;;5058241;28;20027;-65
2023/10/12 04:36:44;;;;;;;10.45;9.95;;;;;;;;;;5058559;28;20513;-65
2023/10/12 04:39:17;;;;;;;10.88;10.38;;;;;;;;;;5060325;28;20562;-63
2023/10/12 04:47:05;;;;;;;10.75;10.25;;;;;;;;;;5053662;28;20029;-62
2023/10/12 04:57:38;;;;;;;10.48;9.98;;;;;;;;;;5042255;28;20021;-62
2023/10/12 05:07:59;;;;;;;10.60;10.10;;;;;;;;;;5056015;28;20587;-61
2023/10/12 05:10:31;;;;;;;10.55;10.05;;;;;;;;;;5064059;28;20461;-61
2023/10/12 05:13:03;;;;;;;10.95;10.45;;;;;;;;;;5054522;28;20102;-62
2023/10/12 05:15:39;;;;;;;10.55;10.05;;;;;;;;;;5066174;28;20111;-62
2023/10/12 05:18:05;;;;;;;10.88;10.38;;;;;;;;;;5062263;28;20025;-62
2023/10/12 05:20:30;;;;;;;10.70;10.20;;;;;;;;;;5071086;28;20059;-62
2023/10/12 05:22:58;;;;;;;10.85;10.35;;;;;;;;;;5065205;28;20021;-61
2023/10/12 05:25:32;;;;;;;11.00;10.50;;;;;;;;;;5073240;28;20144;-62
2023/10/12 05:28:31;;;;;;;10.88;10.38;;;;;;;;;;5070657;28;20032;-62
2023/10/12 05:30:59;;;;;;;11.10;10.60;;;;;;;;;;5060825;28;20112;-62
2023/10/12 05:35:59;;;;;;;;;;;;;;;;;;5074621;28;20619;-61
2023/10/12 05:38:34;;;;;;;10.80;10.30;;;;;;;;;;5067732;28;19909;-62
2023/10/12 05:41:02;;;;;;;11.48;10.98;;;;;;;;;;5063266;28;20024;-61
2023/10/12 05:43:31;;;;;;;11.38;10.88;;;;;;;;;;5062641;28;20020;-62
2023/10/12 05:46:01;;;;;;;11.93;11.43;;;;;;;;;;5056546;28;20529;-62
2023/10/12 05:48:27;;;;;;;11.30;10.80;;;;;;;;;;5073672;28;20433;-63
2023/10/12 05:50:53;;;;;;;11.50;11.00;;;;;;;;;;5077959;28;20123;-63
2023/10/12 05:53:20;;;;;;;11.68;11.18;;;;;;;;;;5067002;28;20027;-63
2023/10/12 05:55:47;;;;;;;11.50;11.00;;;;;;;;;;5073403;28;20069;-64
2023/10/12 05:58:13;;;;;;;12.10;11.60;;;;;;;;;;5067916;28;20096;-62
2023/10/12 06:00:45;;;;;;;11.57;11.07;;;;;;;;;;5068469;28;20020;-62
2023/10/12 06:03:15;;;;;;;11.60;11.10;;;;;;;;;;5073997;28;20020;-62
2023/10/12 06:05:41;;;;;;;11.82;11.32;;;;;;;;;;5064441;28;20108;-62
2023/10/12 06:08:10;;;;;;;11.45;10.95;;;;;;;;;;5069785;28;20055;-62
2023/10/12 06:10:40;;;;;;;12.10;11.60;;;;;;;;;;5068041;28;20102;-63
2023/10/12 06:13:06;;;;;;;11.63;11.13;;;;;;;;;;5062646;28;20111;-63
2023/10/12 06:15:39;;;;;;;11.73;11.23;;;;;;;;;;5059475;28;20087;-63
2023/10/12 06:18:04;;;;;;;11.70;11.20;;;;;;;;;;5066524;28;20053;-62
2023/10/12 06:20:35;;;;;;;11.70;11.20;;;;;;;;;;5062005;28;20446;-62
2023/10/12 06:23:05;;;;;;;12.00;11.50;;;;;;;;;;5072466;28;20028;-61
2023/10/12 06:25:30;;;;;;;11.55;11.05;;;;;;;;;;5055603;28;20501;-63
2023/10/12 06:27:55;;;;;;;11.98;11.48;;;;;;;;;;5064743;28;20083;-63
2023/10/12 06:30:23;;;;;;;11.70;11.20;;;;;;;;;;5066023;28;20020;-62
2023/10/12 06:32:48;;;;;;;11.85;11.35;;;;;;;;;;5064136;28;20069;-64
2023/10/12 06:35:24;;;;;;;11.85;11.35;;;;;;;;;;5055239;28;20649;-63
2023/10/12 06:37:51;;;;;;;11.88;11.38;;;;;;;;;;5061321;28;20063;-64
2023/10/12 06:45:51;;;;;;;11.93;11.43;;;;;;;;;;5065283;28;20029;-65
2023/10/12 06:51:05;;;;;;;12.07;11.57;;;;;;;;;;5054325;28;20028;-64
2023/10/12 06:53:34;;;;;;;11.80;11.30;;;;;;;;;;5059753;28;21410;-63
2023/10/12 06:56:13;;;;;;;11.65;11.15;;;;;;;;;;5055525;28;20029;-64
2023/10/12 06:58:38;;;;;;;11.80;11.30;;;;;;;;;;5062157;28;20081;-63
2023/10/12 07:01:18;;;;;;;12.27;11.77;;;;;;;;;;5057534;28;20754;-63
2023/10/12 07:03:48;;;;;;;12.10;11.60;;;;;;;;;;5058132;28;20024;-63
2023/10/12 07:06:15;;;;;;;11.90;11.40;;;;;;;;;;5057604;28;20032;-63
2023/10/12 07:08:42;;;;;;;12.20;11.70;;;;;;;;;;5063474;28;20059;-64
2023/10/12 07:11:08;;;;;;;11.68;11.18;;;;;;;;;;5053532;28;20032;-62
2023/10/12 07:13:39;;;;;;;11.85;11.35;;;;;;;;;;5054302;28;20071;-64
2023/10/12 07:16:06;;;;;;;11.85;11.35;;;;;;;;;;5064902;28;20523;-64
2023/10/12 07:18:34;;;;;;;12.27;11.77;;;;;;;;;;5067229;28;20023;-63
2023/10/12 07:20:59;;;;;;;12.20;11.70;;;;;;;;;;5055690;28;20074;-63
2023/10/12 07:23:35;;;;;;;11.82;11.32;;;;;;;;;;5059758;28;20028;-65
2023/10/12 07:26:06;;;;;;;11.93;11.43;;;;;;;;;;5057332;28;20104;-65
2023/10/12 07:28:35;;;;;;;11.90;11.40;;;;;;;;;;5058581;28;20028;-63
2023/10/12 07:33:52;;;;;;;11.48;10.98;;;;;;;;;;5066365;28;20044;-64
2023/10/12 07:36:17;;;;;;;12.30;11.80;;;;;;;;;;5070851;28;20038;-64
2023/10/12 07:38:46;;;;;;;11.98;11.48;;;;;;;;;;5073847;28;20036;-65
2023/10/12 07:41:12;;;;;;;11.80;11.30;;;;;;;;;;5063677;28;20596;-66
2023/10/12 07:43:38;;;;;;;11.88;11.38;;;;;;;;;;5059817;28;20126;-65
2023/10/12 07:46:10;;;;;;;11.98;11.48;;;;;;;;;;5060643;28;20031;-64
2023/10/12 07:48:45;;;;;;;12.20;11.70;;;;;;;;;;5061146;28;20025;-64
2023/10/12 07:51:54;;;;;;;12.18;11.68;;;;;;;;;;5058235;28;20017;-64
2023/10/12 07:54:26;;;;;;;12.15;11.65;;;;;;;;;;5060021;28;20025;-65
2023/10/12 07:56:52;;;;;;;11.93;11.43;;;;;;;;;;5062275;28;20406;-61
2023/10/12 07:59:22;;;;;;;12.07;11.57;;;;;;;;;;5062511;28;20378;-63
2023/10/12 08:01:50;;;;;;;12.20;11.70;;;;;;;;;;5059636;28;20028;-64
2023/10/12 08:04:31;;;;;;;11.90;11.40;;;;;;;;;;5057123;28;20028;-63
2023/10/12 08:06:57;;;;;;;12.02;11.52;;;;;;;;;;5053275;28;20021;-63
2023/10/12 08:11:51;;;;;;;11.93;11.43;;;;;;;;;;5056226;28;20412;-64
2023/10/12 08:14:39;;;;;;;11.90;11.40;;;;;;;;;;5067017;28;20086;-64
2023/10/12 08:17:39;;;;;;;11.95;11.45;;;;;;;;;;5062924;28;20035;-62
2023/10/12 08:20:13;;;;;;;11.75;11.25;;;;;;;;;;5065542;28;20126;-63
2023/10/12 08:22:38;;;;;;;12.02;11.52;;;;;;;;;;5058899;28;20110;-65
2023/10/12 08:25:04;;;;;;;11.90;11.40;;;;;;;;;;5057634;28;20107;-62
2023/10/12 08:27:43;;;;;;;11.68;11.18;;;;;;;;;;5069689;28;20264;-63
2023/10/12 08:30:23;;;;;;;11.82;11.32;;;;;;;;;;5065358;28;20052;-64
2023/10/12 08:33:14;;;;;;;11.88;11.38;;;;;;;;;;5067843;28;20025;-62
2023/10/12 08:36:10;;;;;;;11.82;11.32;;;;;;;;;;5068682;28;20035;-63
2023/10/12 08:38:33;;;;;;;12.10;11.60;;;;;;;;;;5066234;28;20043;-65
2023/10/12 08:43:48;;;;;;;11.60;11.10;;;;;;;;;;5066615;28;20131;-63
2023/10/12 08:46:20;;;;;;;11.80;11.30;;;;;;;;;;5063391;28;20070;-63
2023/10/12 08:48:54;;;;;;;11.55;11.05;;;;;;;;;;5056631;28;20056;-62
2023/10/12 08:51:29;;;;;;;11.80;11.30;;;;;;;;;;5056664;28;20025;-62
2023/10/12 08:53:57;;;;;;;11.85;11.35;;;;;;;;;;5063212;28;20100;-65
2023/10/12 08:56:26;;;;;;;11.93;11.43;;;;;;;;;;5063570;28;20098;-63
2023/10/12 08:58:52;;;;;;;12.18;11.68;;;;;;;;;;5056749;28;20464;-64
2023/10/12 09:01:23;;;;;;;12.05;11.55;;;;;;;;;;5061168;28;20491;-62
2023/10/12 09:03:53;;;;;;;11.90;11.40;;;;;;;;;;5064368;28;20028;-62
2023/10/12 09:06:36;;;;;;;11.60;11.10;;;;;;;;;;5059969;28;20055;-63
2023/10/12 09:09:05;;;;;;;11.90;11.40;;;;;;;;;;5062635;28;20024;-63
2023/10/12 09:11:33;;;;;;;11.55;11.05;;;;;;;;;;5059999;28;20028;-63
2023/10/12 09:13:59;;;;;;;11.68;11.18;;;;;;;;;;5065672;28;20044;-64
2023/10/12 09:16:26;;;;;;;11.60;11.10;;;;;;;;;;5073748;28;20070;-65
2023/10/12 09:18:57;;;;;;;12.13;11.63;;;;;;;;;;5064175;28;20029;-63
2023/10/12 09:24:14;;;;;;;11.98;11.48;;;;;;;;;;5057724;28;20036;-63
2023/10/12 09:26:49;;;;;;;11.75;11.25;;;;;;;;;;5065935;28;20024;-63
2023/10/12 09:29:40;;;;;;;11.80;11.30;;;;;;;;;;5071778;28;20027;-63
2023/10/12 09:34:43;;;;;;;12.70;12.10;;;;;;;;;;5060405;28;20108;-62
2023/10/12 09:37:16;;;;;;;13.18;12.57;;;;;;;;;;5053145;28;20029;-62
2023/10/12 09:39:41;;;;;;;11.50;11.00;;;;;;;;;;5066451;28;20024;-62
2023/10/12 09:42:14;;;;;;;11.80;11.30;;;;;;;;;;5056596;28;20023;-63
2023/10/12 09:44:40;;;;;;;11.98;11.48;;;;;;;;;;5062040;28;20115;-62
2023/10/12 09:47:15;;;;;;;12.55;11.98;;;;;;;;;;5050853;28;20028;-62
2023/10/12 09:49:46;;;;;;;13.07;12.48;;;;;;;;;;5054853;28;20636;-67
2023/10/12 09:52:13;;;;;;;12.95;12.35;;;;;;;;;;5061640;28;20024;-63
2023/10/12 09:54:45;;;;;;;12.20;11.70;;;;;;;;;;5061108;28;20016;-65
2023/10/12 09:57:19;;;;;;;12.35;11.75;;;;;;;;;;5068278;28;20016;-63
2023/10/12 09:59:51;;;;;;;;;;;;;;;;;;5062157;28;20493;-65
2023/10/12 10:02:28;;;;;;;12.60;12.00;;;;;;;;;;5056973;28;19912;-65
2023/10/12 10:05:26;;;;;;;11.95;11.45;;;;;;;;;;5061388;28;20047;-64
2023/10/12 10:07:57;;;;;;;12.38;11.80;;;;;;;;;;5057730;28;20039;-63
2023/10/12 10:10:35;;;;;;;12.10;11.60;;;;;;;;;;5070146;28;20091;-63
2023/10/12 10:13:13;;;;;;;12.90;12.30;;;;;;;;;;5064945;28;20040;-65
2023/10/12 10:15:59;;;;;;;12.60;12.00;;;;;;;;;;5067753;28;20024;-62
2023/10/12 10:18:28;;;;;;;12.85;12.25;;;;;;;;;;5059397;28;20425;-64
2023/10/12 10:20:57;;;;;;;12.85;12.25;;;;;;;;;;5055975;28;20024;-65
2023/10/12 10:23:23;;;;;;;11.73;11.23;;;;;;;;;;5057488;28;20453;-65
2023/10/12 10:26:40;;;;;;;11.88;11.38;;;;;;;;;;5065383;28;20496;-64
2023/10/12 10:28:55;;;;;;;11.82;11.32;;;;;;;;;;5058074;28;20049;-64
2023/10/12 10:31:24;;;;;;;11.32;10.82;;;;;;;;;;5069480;28;20374;-64
2023/10/12 10:33:51;;;;;;;11.88;11.38;;;;;;;;;;5071631;28;20082;-63
2023/10/12 10:36:34;;;;;;;11.43;10.93;;;;;;;;;;5073763;28;20025;-65
2023/10/12 10:39:08;;;;;;;11.57;11.07;;;;;;;;;;5070279;28;20085;-65
2023/10/12 10:41:46;;;;;;;11.53;11.03;;;;;;;;;;5068478;28;20083;-64
2023/10/12 10:44:29;;;;;;;11.63;11.13;;;;;;;;;;5077589;28;20021;-64
2023/10/12 10:47:00;;;;;;;11.70;11.20;;;;;;;;;;5067339;28;20108;-63
2023/10/12 10:49:31;;;;;;;11.20;10.70;;;;;;;;;;5070198;28;20528;-65
2023/10/12 10:52:13;;;;;;;11.77;11.27;;;;;;;;;;5070368;28;20013;-64
2023/10/12 10:54:40;;;;;;;10.95;10.45;;;;;;;;;;5068985;28;20036;-64
2023/10/12 10:57:17;;;;;;;11.88;11.38;;;;;;;;;;5068318;28;20069;-64
2023/10/12 10:59:45;;;;;;;11.50;11.00;;;;;;;;;;5071301;28;20024;-66
2023/10/12 11:02:14;;;;;;;11.73;11.23;;;;;;;;;;5061155;28;20020;-65
2023/10/12 11:07:11;;;;;;;10.98;10.48;;;;;;;;;;5078507;28;20016;-64
2023/10/12 11:12:14;;;;;;;11.25;10.75;;;;;;;;;;5073716;28;20059;-64
2023/10/12 11:14:43;;;;;;;11.60;11.10;;;;;;;;;;5067403;28;20020;-65
2023/10/12 11:17:09;;;;;;;11.50;11.00;;;;;;;;;;5060624;28;20024;-65
2023/10/12 11:19:36;;;;;;;11.10;10.60;;;;;;;;;;5078134;28;20378;-63
2023/10/12 11:22:01;;;;;;;13.02;12.43;;;;;;;;;;5055760;28;20121;-63
2023/10/12 11:24:27;;;;;;;11.85;11.35;;;;;;;;;;5055393;28;20024;-65
2023/10/12 11:26:54;;;;;;;12.00;11.50;;;;;;;;;;5059388;28;20496;-63
2023/10/12 11:29:20;;;;;;;11.77;11.27;;;;;;;;;;5063868;28;20031;-65
2023/10/12 11:32:11;;;;;;;12.10;11.60;;;;;;;;;;5068442;28;20488;-66
2023/10/12 11:34:36;;;;;;;12.55;11.95;;;;;;;;;;5058925;28;20029;-64
2023/10/12 11:37:01;;;;;;;11.80;11.30;;;;;;;;;;5063527;28;20017;-65
2023/10/12 11:39:28;;;;;;;11.75;11.25;;;;;;;;;;5068189;28;20400;-65
2023/10/12 11:42:12;;;;;;;11.80;11.30;;;;;;;;;;5061721;28;20077;-64
2023/10/12 11:44:42;;;;;;;11.80;11.30;;;;;;;;;;5062539;28;20031;-65
2023/10/12 11:47:08;;;;;;;12.50;11.93;;;;;;;;;;5061160;28;20285;-63
2023/10/12 11:49:49;;;;;;;11.98;11.48;;;;;;;;;;5064299;28;20021;-63
2023/10/12 11:52:21;;;;;;;11.57;11.07;;;;;;;;;;5061005;28;20024;-66
2023/10/12 11:54:48;;;;;;;12.02;11.52;;;;;;;;;;5054659;28;20099;-65
2023/10/12 11:57:13;;;;;;;12.02;11.52;;;;;;;;;;5055274;28;20028;-64
2023/10/12 11:59:39;;;;;;;11.80;11.30;;;;;;;;;;5067457;28;20051;-65
2023/10/12 12:02:16;;;;;;;12.23;11.70;;;;;;;;;;5060705;28;20872;-63
2023/10/12 12:04:41;;;;;;;11.93;11.43;;;;;;;;;;5061834;28;20033;-64
2023/10/12 12:07:10;;;;;;;12.20;11.70;;;;;;;;;;5063564;28;20334;-66
2023/10/12 12:09:39;;;;;;;12.00;11.50;;;;;;;;;;5061771;28;20024;-64
2023/10/12 12:12:07;;;;;;;11.88;11.38;;;;;;;;;;5058041;28;20097;-64
2023/10/12 12:14:33;;;;;;;12.13;11.63;;;;;;;;;;5060673;28;20371;-64
2023/10/12 12:16:58;;;;;;;11.65;11.15;;;;;;;;;;5064102;28;20042;-63
2023/10/12 12:19:24;;;;;;;12.15;11.65;;;;;;;;;;5064251;28;20430;-64
2023/10/12 12:21:50;;;;;;;12.57;11.98;;;;;;;;;;5066793;28;20021;-63
2023/10/12 12:26:49;;;;;;;12.05;11.55;;;;;;;;;;5064005;28;20043;-63
2023/10/12 12:29:16;;;;;;;12.15;11.65;;;;;;;;;;5058740;28;20020;-63
2023/10/12 12:31:41;;;;;;;11.30;10.80;;;;;;;;;;5062348;28;20034;-60
2023/10/12 12:34:06;;;;;;;12.45;11.85;;;;;;;;;;5063501;28;20009;-64
2023/10/12 12:36:32;;;;;;;11.77;11.27;;;;;;;;;;5052897;28;20024;-62
2023/10/12 12:38:59;;;;;;;12.52;11.93;;;;;;;;;;5054662;28;20024;-63
2023/10/12 12:41:25;;;;;;;11.77;11.27;;;;;;;;;;5060398;28;20494;-63
2023/10/12 12:43:51;;;;;;;11.77;11.27;;;;;;;;;;5064259;28;21231;-64
2023/10/12 12:46:17;;;;;;;12.63;12.02;;;;;;;;;;5060807;28;20032;-63
2023/10/12 12:48:45;;;;;;;11.85;11.35;;;;;;;;;;5061635;28;20024;-63
2023/10/12 12:51:15;;;;;;;11.85;11.35;;;;;;;;;;5069137;28;20066;-62
2023/10/12 12:53:40;;;;;;;11.82;11.32;;;;;;;;;;5061352;28;20028;-65
2023/10/12 12:56:10;;;;;;;11.90;11.40;;;;;;;;;;5069634;28;20036;-63
2023/10/12 12:58:36;;;;;;;12.13;11.63;;;;;;;;;;5068257;28;20449;-62
2023/10/12 13:01:01;;;;;;;12.88;12.27;;;;;;;;;;5059901;28;20028;-63
2023/10/12 13:03:28;;;;;;;12.32;11.80;;;;;;;;;;5058226;28;20086;-66
2023/10/12 13:05:53;;;;;;;12.23;11.73;;;;;;;;;;5059660;28;20489;-65
2023/10/12 13:08:19;;;;;;;11.80;11.30;;;;;;;;;;5061717;28;20035;-64
2023/10/12 13:10:44;;;;;;;11.98;11.48;;;;;;;;;;5060549;28;20029;-65
2023/10/12 13:13:09;;;;;;;11.88;11.38;;;;;;;;;;5061894;28;20102;-64
2023/10/12 13:15:41;;;;;;;11.90;11.40;;;;;;;;;;5062300;28;20028;-65
2023/10/12 13:18:15;;;;;;;12.60;12.00;;;;;;;;;;5061060;28;20089;-64
2023/10/12 13:20:46;;;;;;;12.00;11.50;;;;;;;;;;5060372;28;20028;-63
2023/10/12 13:23:13;;;;;;;11.55;11.05;;;;;;;;;;5059959;28;20052;-67
2023/10/12 13:25:39;;;;;;;12.20;11.70;;;;;;;;;;5066016;28;26742;-64
2023/10/12 13:28:04;;;;;;;11.85;11.35;;;;;;;;;;5069708;28;20465;-65
2023/10/12 13:30:30;;;;;;;12.00;11.50;;;;;;;;;;5066551;28;20107;-63
2023/10/12 13:33:00;;;;;;;11.65;11.15;;;;;;;;;;5056601;28;20109;-62
2023/10/12 13:35:41;;;;;;;11.90;11.40;;;;;;;;;;5072345;28;20132;-65
2023/10/12 13:38:11;;;;;;;12.00;11.50;;;;;;;;;;5061337;28;20021;-65
2023/10/12 13:40:40;;;;;;;11.65;11.15;;;;;;;;;;5066139;28;20060;-63
2023/10/12 13:43:14;;;;;;;12.05;11.55;;;;;;;;;;5065013;28;20032;-63
2023/10/12 13:45:49;;;;;;;12.13;11.63;;;;;;;;;;5063464;28;20453;-64
2023/10/12 13:48:17;;;;;;;12.07;11.57;;;;;;;;;;5061070;28;20259;-62
2023/10/12 13:50:42;;;;;;;12.00;11.50;;;;;;;;;;5067757;28;20040;-63
2023/10/12 13:53:08;;;;;;;13.00;12.40;;;;;;;;;;5060645;28;20098;-64
2023/10/12 13:55:35;;;;;;;11.77;11.27;;;;;;;;;;5066373;28;20032;-64
2023/10/12 13:58:00;;;;;;;12.25;11.70;;;;;;;;;;5066315;28;20146;-63
2023/10/12 14:00:25;;;;;;;12.00;11.50;;;;;;;;;;5063060;28;20155;-63
2023/10/12 14:02:56;;;;;;;12.50;11.90;;;;;;;;;;5060674;28;20486;-65
2023/10/12 14:05:27;;;;;;;12.20;11.70;;;;;;;;;;5067475;28;20055;-63
2023/10/12 14:07:54;;;;;;;11.85;11.35;;;;;;;;;;5065368;28;20136;-64
2023/10/12 14:10:20;;;;;;;11.57;11.07;;;;;;;;;;5059288;28;20115;-65
2023/10/12 14:12:46;;;;;;;12.50;11.93;;;;;;;;;;5065327;28;20398;-62
2023/10/12 14:15:11;;;;;;;12.73;12.13;;;;;;;;;;5059273;28;20028;-62
2023/10/12 14:17:37;;;;;;;12.23;11.70;;;;;;;;;;5057461;28;20031;-65
2023/10/12 14:20:03;;;;;;;11.93;11.43;;;;;;;;;;5071768;28;20166;-62
2023/10/12 14:22:29;;;;;;;12.00;11.50;;;;;;;;;;5065197;28;20115;-63
2023/10/12 14:24:55;;;;;;;11.85;11.35;;;;;;;;;;5067287;28;20092;-61
2023/10/12 14:27:21;;;;;;;12.63;12.02;;;;;;;;;;5061734;28;20039;-65
2023/10/12 14:29:47;;;;;;;11.90;11.40;;;;;;;;;;5067905;28;22816;-66
2023/10/12 14:32:13;;;;;;;12.27;11.75;;;;;;;;;;5053254;28;20203;-63
2023/10/12 14:34:39;;;;;;;11.88;11.38;;;;;;;;;;5064267;28;20055;-64
2023/10/12 14:37:13;;;;;;;12.60;12.00;;;;;;;;;;5062380;28;20033;-64
2023/10/12 14:39:40;;;;;;;11.27;10.77;;;;;;;;;;5062575;28;20457;-61
2023/10/12 14:42:06;;;;;;;11.77;11.27;;;;;;;;;;5064559;28;20047;-63
2023/10/12 14:44:33;;;;;;;12.60;12.00;;;;;;;;;;5065315;28;20021;-63
2023/10/12 14:47:04;;;;;;;11.73;11.23;;;;;;;;;;5060633;28;20025;-63
2023/10/12 14:49:32;;;;;;;11.60;11.10;;;;;;;;;;5063822;28;20127;-60
2023/10/12 14:52:00;;;;;;;11.65;11.15;;;;;;;;;;5058585;28;20209;-62
2023/10/12 14:54:25;;;;;;;11.55;11.05;;;;;;;;;;5064450;28;20032;-63
2023/10/12 14:56:53;;;;;;;11.45;10.95;;;;;;;;;;5058866;28;20028;-62
2023/10/12 14:59:18;;;;;;;11.30;10.80;;;;;;;;;;5062121;28;20055;-63
2023/10/12 15:01:45;;;;;;;12.10;11.60;;;;;;;;;;5067861;28;20058;-67
2023/10/12 15:04:10;;;;;;;12.00;11.50;;;;;;;;;;5065643;28;20046;-66
2023/10/12 15:06:36;;;;;;;11.70;11.20;;;;;;;;;;5060582;28;20866;-65
2023/10/12 15:09:03;;;;;;;11.88;11.38;;;;;;;;;;5064142;28;20077;-65
2023/10/12 15:11:30;;;;;;;11.95;11.45;;;;;;;;;;5066463;28;20464;-65
2023/10/12 15:13:55;;;;;;;12.15;11.65;;;;;;;;;;5055955;28;20048;-62
2023/10/12 15:16:23;;;;;;;11.98;11.48;;;;;;;;;;5056814;28;20043;-63
2023/10/12 15:18:49;;;;;;;12.38;11.77;;;;;;;;;;5061131;28;20024;-63
2023/10/12 15:21:15;;;;;;;11.68;11.18;;;;;;;;;;5065969;28;20024;-63
2023/10/12 15:23:42;;;;;;;12.60;12.00;;;;;;;;;;5065875;28;20114;-62
2023/10/12 15:26:07;;;;;;;11.90;11.40;;;;;;;;;;5059542;28;20013;-64
2023/10/12 15:28:36;;;;;;;12.93;12.32;;;;;;;;;;5072284;28;20035;-62
2023/10/12 15:31:06;;;;;;;12.32;11.73;;;;;;;;;;5065191;28;20089;-63
2023/10/12 15:33:31;;;;;;;12.40;11.80;;;;;;;;;;5055172;28;20402;-63
2023/10/12 15:35:57;;;;;;;11.77;11.27;;;;;;;;;;5067381;28;20077;-64
2023/10/12 15:38:28;;;;;;;12.18;11.65;;;;;;;;;;5067459;28;20032;-62
2023/10/12 15:40:56;;;;;;;11.95;11.45;;;;;;;;;;5058849;28;20017;-64
2023/10/12 15:43:22;;;;;;;11.98;11.48;;;;;;;;;;5060384;28;20181;-61
2023/10/12 15:45:47;;;;;;;11.95;11.45;;;;;;;;;;5058284;28;20035;-63
2023/10/12 15:48:13;;;;;;;11.80;11.30;;;;;;;;;;5060169;28;20587;-64
2023/10/12 15:50:39;;;;;;;11.98;11.48;;;;;;;;;;5059787;28;20017;-63
2023/10/12 15:53:06;;;;;;;11.30;10.80;;;;;;;;;;5061619;28;20638;-63
2023/10/12 15:55:34;;;;;;;11.68;11.18;;;;;;;;;;5060570;28;20036;-61
2023/10/12 15:58:00;;;;;;;11.60;11.10;;;;;;;;;;5064577;28;20155;-62
2023/10/12 16:00:29;;;;;;;11.80;11.30;;;;;;;;;;5064808;28;20493;-62
2023/10/12 16:02:55;;;;;;;11.93;11.43;;;;;;;;;;5063316;28;20801;-61
2023/10/12 16:05:22;;;;;;;11.70;11.20;;;;;;;;;;5061082;28;20020;-62
2023/10/12 16:07:49;;;;;;;11.60;11.10;;;;;;;;;;5072085;28;20098;-62
2023/10/12 16:10:17;;;;;;;11.50;11.00;;;;;;;;;;5065432;28;20473;-61
2023/10/12 16:12:47;;;;;;;11.60;11.10;;;;;;;;;;5069399;28;20500;-61
2023/10/12 16:15:13;;;;;;;11.60;11.10;;;;;;;;;;5070292;28;20036;-63
2023/10/12 16:17:39;;;;;;;11.10;10.60;;;;;;;;;;5070617;28;20380;-63